sensor_id;sensor_type;location;lat;lon;timestamp;P1;durP1;ratioP1;P2;durP2;ratioP2
70199;SDS011;57587;55.688;37.600;2023-01-29T00:01:57;21.27;;;9.77;;
70199;SDS011;57587;55.688;37.600;2023-01-29T00:04:25;21.92;;;10.88;;
70199;SDS011;57587;55.688;37.600;2023-01-29T00:06:52;21.27;;;9.60;;
70199;SDS011;57587;55.688;37.600;2023-01-29T00:09:19;21.00;;;10.17;;
70199;SDS011;57587;55.688;37.600;2023-01-29T00:11:46;20.10;;;9.95;;
70199;SDS011;57587;55.688;37.600;2023-01-29T00:14:13;22.67;;;10.05;;
70199;SDS011;57587;55.688;37.600;2023-01-29T00:16:41;18.30;;;8.25;;
70199;SDS011;57587;55.688;37.600;2023-01-29T00:19:08;19.02;;;9.02;;
70199;SDS011;57587;55.688;37.600;2023-01-29T00:21:35;18.83;;;9.27;;
70199;SDS011;57587;55.688;37.600;2023-01-29T00:24:02;17.92;;;7.85;;
70199;SDS011;57587;55.688;37.600;2023-01-29T00:26:30;18.48;;;9.02;;
70199;SDS011;57587;55.688;37.600;2023-01-29T00:28:57;18.42;;;7.90;;
70199;SDS011;57587;55.688;37.600;2023-01-29T00:31:26;14.48;;;8.02;;
70199;SDS011;57587;55.688;37.600;2023-01-29T00:33:53;17.83;;;7.93;;
70199;SDS011;57587;55.688;37.600;2023-01-29T00:36:21;17.67;;;8.73;;
70199;SDS011;57587;55.688;37.600;2023-01-29T00:38:53;14.80;;;7.97;;
70199;SDS011;57587;55.688;37.600;2023-01-29T00:41:28;17.73;;;9.20;;
70199;SDS011;57587;55.688;37.600;2023-01-29T00:44:15;17.55;;;8.32;;
70199;SDS011;57587;55.688;37.600;2023-01-29T00:47:01;18.40;;;9.20;;
70199;SDS011;57587;55.688;37.600;2023-01-29T00:49:29;17.40;;;8.90;;
70199;SDS011;57587;55.688;37.600;2023-01-29T00:51:57;17.73;;;9.07;;
70199;SDS011;57587;55.688;37.600;2023-01-29T00:54:42;19.17;;;8.80;;
70199;SDS011;57587;55.688;37.600;2023-01-29T00:57:09;20.27;;;9.45;;
70199;SDS011;57587;55.688;37.600;2023-01-29T00:59:36;19.97;;;9.57;;
70199;SDS011;57587;55.688;37.600;2023-01-29T01:02:04;19.73;;;9.77;;
70199;SDS011;57587;55.688;37.600;2023-01-29T01:04:49;18.88;;;9.80;;
70199;SDS011;57587;55.688;37.600;2023-01-29T01:07:16;18.13;;;9.13;;
70199;SDS011;57587;55.688;37.600;2023-01-29T01:09:43;18.83;;;10.32;;
70199;SDS011;57587;55.688;37.600;2023-01-29T01:12:29;21.13;;;10.33;;
70199;SDS011;57587;55.688;37.600;2023-01-29T01:14:56;20.00;;;10.35;;
70199;SDS011;57587;55.688;37.600;2023-01-29T01:17:24;22.10;;;10.80;;
70199;SDS011;57587;55.688;37.600;2023-01-29T01:19:51;23.83;;;11.77;;
70199;SDS011;57587;55.688;37.600;2023-01-29T01:22:18;19.77;;;11.15;;
70199;SDS011;57587;55.688;37.600;2023-01-29T01:24:45;19.87;;;10.47;;
70199;SDS011;57587;55.688;37.600;2023-01-29T01:27:12;19.98;;;11.38;;
70199;SDS011;57587;55.688;37.600;2023-01-29T01:29:39;17.55;;;10.23;;
70199;SDS011;57587;55.688;37.600;2023-01-29T01:32:06;17.77;;;9.80;;
70199;SDS011;57587;55.688;37.600;2023-01-29T01:34:34;14.25;;;8.10;;
70199;SDS011;57587;55.688;37.600;2023-01-29T01:37:01;15.17;;;7.93;;
70199;SDS011;57587;55.688;37.600;2023-01-29T01:39:28;12.02;;;6.82;;
70199;SDS011;57587;55.688;37.600;2023-01-29T01:41:55;12.10;;;6.22;;
70199;SDS011;57587;55.688;37.600;2023-01-29T01:53:14;7.55;;;4.30;;
70199;SDS011;57587;55.688;37.600;2023-01-29T01:55:47;7.03;;;4.32;;
70199;SDS011;57587;55.688;37.600;2023-01-29T01:58:29;9.80;;;5.15;;
70199;SDS011;57587;55.688;37.600;2023-01-29T02:01:01;9.90;;;5.82;;
70199;SDS011;57587;55.688;37.600;2023-01-29T02:03:34;7.73;;;5.00;;
70199;SDS011;57587;55.688;37.600;2023-01-29T02:06:27;10.82;;;5.30;;
70199;SDS011;57587;55.688;37.600;2023-01-29T02:09:19;9.27;;;5.43;;
70199;SDS011;57587;55.688;37.600;2023-01-29T02:12:04;9.88;;;5.43;;
70199;SDS011;57587;55.688;37.600;2023-01-29T02:14:38;8.80;;;5.00;;
70199;SDS011;57587;55.688;37.600;2023-01-29T02:17:26;9.30;;;5.90;;
70199;SDS011;57587;55.688;37.600;2023-01-29T02:25:43;9.80;;;4.97;;
70199;SDS011;57587;55.688;37.600;2023-01-29T02:36:52;7.50;;;4.18;;
70199;SDS011;57587;55.688;37.600;2023-01-29T02:39:36;7.90;;;4.55;;
70199;SDS011;57587;55.688;37.600;2023-01-29T02:42:15;7.13;;;4.60;;
70199;SDS011;57587;55.688;37.600;2023-01-29T02:50:21;5.68;;;4.25;;
70199;SDS011;57587;55.688;37.600;2023-01-29T02:53:13;5.57;;;3.97;;
70199;SDS011;57587;55.688;37.600;2023-01-29T02:55:48;6.47;;;3.80;;
70199;SDS011;57587;55.688;37.600;2023-01-29T02:58:44;6.47;;;3.67;;
70199;SDS011;57587;55.688;37.600;2023-01-29T03:01:34;5.15;;;3.30;;
70199;SDS011;57587;55.688;37.600;2023-01-29T03:04:03;5.55;;;3.70;;
70199;SDS011;57587;55.688;37.600;2023-01-29T03:06:38;6.45;;;4.00;;
70199;SDS011;57587;55.688;37.600;2023-01-29T03:09:11;4.70;;;3.25;;
70199;SDS011;57587;55.688;37.600;2023-01-29T03:11:47;7.17;;;3.80;;
70199;SDS011;57587;55.688;37.600;2023-01-29T03:14:23;4.70;;;3.30;;
70199;SDS011;57587;55.688;37.600;2023-01-29T03:17:18;5.90;;;3.95;;
70199;SDS011;57587;55.688;37.600;2023-01-29T03:19:48;6.40;;;3.97;;
70199;SDS011;57587;55.688;37.600;2023-01-29T03:22:20;5.65;;;4.00;;
70199;SDS011;57587;55.688;37.600;2023-01-29T03:24:53;5.70;;;4.50;;
70199;SDS011;57587;55.688;37.600;2023-01-29T03:27:47;5.35;;;3.83;;
70199;SDS011;57587;55.688;37.600;2023-01-29T03:30:52;8.30;;;3.88;;
70199;SDS011;57587;55.688;37.600;2023-01-29T03:33:52;6.22;;;3.75;;
70199;SDS011;57587;55.688;37.600;2023-01-29T03:39:06;5.07;;;3.37;;
70199;SDS011;57587;55.688;37.600;2023-01-29T03:41:35;4.75;;;3.70;;
70199;SDS011;57587;55.688;37.600;2023-01-29T03:46:40;5.43;;;3.70;;
70199;SDS011;57587;55.688;37.600;2023-01-29T03:52:15;5.50;;;3.53;;
70199;SDS011;57587;55.688;37.600;2023-01-29T03:54:56;4.95;;;3.72;;
70199;SDS011;57587;55.688;37.600;2023-01-29T04:00:13;6.07;;;4.03;;
70199;SDS011;57587;55.688;37.600;2023-01-29T04:05:50;5.53;;;3.90;;
70199;SDS011;57587;55.688;37.600;2023-01-29T04:08:31;4.90;;;3.28;;
70199;SDS011;57587;55.688;37.600;2023-01-29T04:11:02;5.47;;;3.28;;
70199;SDS011;57587;55.688;37.600;2023-01-29T04:13:36;5.80;;;4.00;;
70199;SDS011;57587;55.688;37.600;2023-01-29T04:16:05;7.43;;;3.80;;
70199;SDS011;57587;55.688;37.600;2023-01-29T04:18:54;6.17;;;3.90;;
70199;SDS011;57587;55.688;37.600;2023-01-29T04:21:29;5.50;;;4.00;;
70199;SDS011;57587;55.688;37.600;2023-01-29T04:23:58;4.85;;;3.75;;
70199;SDS011;57587;55.688;37.600;2023-01-29T04:37:43;7.43;;;4.13;;
70199;SDS011;57587;55.688;37.600;2023-01-29T04:40:53;6.18;;;3.70;;
70199;SDS011;57587;55.688;37.600;2023-01-29T04:43:45;7.18;;;4.20;;
70199;SDS011;57587;55.688;37.600;2023-01-29T04:46:28;6.97;;;4.10;;
70199;SDS011;57587;55.688;37.600;2023-01-29T04:55:40;6.78;;;3.90;;
70199;SDS011;57587;55.688;37.600;2023-01-29T05:00:59;7.77;;;4.43;;
70199;SDS011;57587;55.688;37.600;2023-01-29T05:03:30;8.88;;;3.85;;
70199;SDS011;57587;55.688;37.600;2023-01-29T05:05:59;6.50;;;4.25;;
70199;SDS011;57587;55.688;37.600;2023-01-29T05:08:28;6.47;;;4.07;;
70199;SDS011;57587;55.688;37.600;2023-01-29T05:10:57;8.10;;;4.53;;
70199;SDS011;57587;55.688;37.600;2023-01-29T05:13:25;7.30;;;4.37;;
70199;SDS011;57587;55.688;37.600;2023-01-29T05:16:18;6.25;;;4.03;;
70199;SDS011;57587;55.688;37.600;2023-01-29T05:18:53;8.75;;;4.25;;
70199;SDS011;57587;55.688;37.600;2023-01-29T05:21:21;6.45;;;4.60;;
70199;SDS011;57587;55.688;37.600;2023-01-29T05:26:46;6.70;;;3.90;;
70199;SDS011;57587;55.688;37.600;2023-01-29T05:29:33;7.45;;;4.50;;
70199;SDS011;57587;55.688;37.600;2023-01-29T05:32:00;7.80;;;4.85;;
70199;SDS011;57587;55.688;37.600;2023-01-29T05:34:29;7.35;;;4.60;;
70199;SDS011;57587;55.688;37.600;2023-01-29T05:36:56;8.20;;;4.80;;
70199;SDS011;57587;55.688;37.600;2023-01-29T05:39:23;8.07;;;5.03;;
70199;SDS011;57587;55.688;37.600;2023-01-29T05:41:50;9.75;;;5.00;;
70199;SDS011;57587;55.688;37.600;2023-01-29T05:44:17;11.00;;;5.00;;
70199;SDS011;57587;55.688;37.600;2023-01-29T05:49:30;7.68;;;4.70;;
70199;SDS011;57587;55.688;37.600;2023-01-29T05:51:57;9.83;;;4.90;;
70199;SDS011;57587;55.688;37.600;2023-01-29T05:54:24;7.50;;;5.85;;
70199;SDS011;57587;55.688;37.600;2023-01-29T05:56:51;8.02;;;4.90;;
70199;SDS011;57587;55.688;37.600;2023-01-29T05:59:18;7.78;;;4.85;;
70199;SDS011;57587;55.688;37.600;2023-01-29T06:01:45;8.18;;;5.88;;
70199;SDS011;57587;55.688;37.600;2023-01-29T06:04:12;9.43;;;5.63;;
70199;SDS011;57587;55.688;37.600;2023-01-29T06:06:39;9.85;;;6.30;;
70199;SDS011;57587;55.688;37.600;2023-01-29T06:09:08;9.50;;;5.10;;
70199;SDS011;57587;55.688;37.600;2023-01-29T06:11:36;9.98;;;5.30;;
70199;SDS011;57587;55.688;37.600;2023-01-29T06:14:03;9.77;;;5.53;;
70199;SDS011;57587;55.688;37.600;2023-01-29T06:16:30;9.60;;;5.33;;
70199;SDS011;57587;55.688;37.600;2023-01-29T06:18:57;9.32;;;5.50;;
70199;SDS011;57587;55.688;37.600;2023-01-29T06:21:24;8.98;;;5.07;;
70199;SDS011;57587;55.688;37.600;2023-01-29T06:23:52;8.40;;;5.63;;
70199;SDS011;57587;55.688;37.600;2023-01-29T06:26:19;9.98;;;6.00;;
70199;SDS011;57587;55.688;37.600;2023-01-29T06:28:49;9.17;;;5.37;;
70199;SDS011;57587;55.688;37.600;2023-01-29T06:31:16;8.70;;;5.28;;
70199;SDS011;57587;55.688;37.600;2023-01-29T06:34:05;7.57;;;4.45;;
70199;SDS011;57587;55.688;37.600;2023-01-29T06:36:32;7.60;;;5.00;;
70199;SDS011;57587;55.688;37.600;2023-01-29T06:39:00;7.45;;;4.93;;
70199;SDS011;57587;55.688;37.600;2023-01-29T06:41:27;8.63;;;5.07;;
70199;SDS011;57587;55.688;37.600;2023-01-29T06:43:54;9.00;;;5.07;;
70199;SDS011;57587;55.688;37.600;2023-01-29T06:46:21;7.78;;;4.60;;
70199;SDS011;57587;55.688;37.600;2023-01-29T06:48:48;8.13;;;5.40;;
70199;SDS011;57587;55.688;37.600;2023-01-29T06:51:15;7.60;;;5.30;;
70199;SDS011;57587;55.688;37.600;2023-01-29T06:53:42;8.70;;;5.40;;
70199;SDS011;57587;55.688;37.600;2023-01-29T06:56:12;8.65;;;4.70;;
70199;SDS011;57587;55.688;37.600;2023-01-29T06:58:39;8.80;;;5.45;;
70199;SDS011;57587;55.688;37.600;2023-01-29T07:01:07;7.60;;;4.82;;
70199;SDS011;57587;55.688;37.600;2023-01-29T07:03:39;8.00;;;4.85;;
70199;SDS011;57587;55.688;37.600;2023-01-29T07:06:08;10.13;;;4.63;;
70199;SDS011;57587;55.688;37.600;2023-01-29T07:08:38;7.55;;;4.40;;
70199;SDS011;57587;55.688;37.600;2023-01-29T07:11:05;11.63;;;4.72;;
70199;SDS011;57587;55.688;37.600;2023-01-29T07:13:33;8.65;;;4.55;;
70199;SDS011;57587;55.688;37.600;2023-01-29T07:16:03;8.32;;;5.40;;
70199;SDS011;57587;55.688;37.600;2023-01-29T07:18:32;11.43;;;4.60;;
70199;SDS011;57587;55.688;37.600;2023-01-29T07:21:02;7.57;;;4.57;;
70199;SDS011;57587;55.688;37.600;2023-01-29T07:23:31;6.93;;;4.90;;
70199;SDS011;57587;55.688;37.600;2023-01-29T07:26:03;7.45;;;4.70;;
70199;SDS011;57587;55.688;37.600;2023-01-29T07:28:35;6.75;;;4.65;;
70199;SDS011;57587;55.688;37.600;2023-01-29T07:31:03;7.37;;;4.43;;
70199;SDS011;57587;55.688;37.600;2023-01-29T07:33:32;7.35;;;4.40;;
70199;SDS011;57587;55.688;37.600;2023-01-29T07:35:59;9.35;;;5.13;;
70199;SDS011;57587;55.688;37.600;2023-01-29T07:38:26;7.28;;;4.30;;
70199;SDS011;57587;55.688;37.600;2023-01-29T07:40:53;7.35;;;4.50;;
70199;SDS011;57587;55.688;37.600;2023-01-29T07:43:21;7.20;;;4.70;;
70199;SDS011;57587;55.688;37.600;2023-01-29T07:45:50;9.18;;;5.20;;
70199;SDS011;57587;55.688;37.600;2023-01-29T07:48:17;7.15;;;4.82;;
70199;SDS011;57587;55.688;37.600;2023-01-29T07:50:52;8.00;;;4.40;;
70199;SDS011;57587;55.688;37.600;2023-01-29T07:53:21;9.23;;;4.65;;
70199;SDS011;57587;55.688;37.600;2023-01-29T07:55:48;6.73;;;4.83;;
70199;SDS011;57587;55.688;37.600;2023-01-29T07:58:15;6.57;;;4.18;;
70199;SDS011;57587;55.688;37.600;2023-01-29T08:00:42;6.57;;;4.28;;
70199;SDS011;57587;55.688;37.600;2023-01-29T08:03:11;7.05;;;5.03;;
70199;SDS011;57587;55.688;37.600;2023-01-29T08:05:42;7.90;;;4.55;;
70199;SDS011;57587;55.688;37.600;2023-01-29T08:08:10;7.27;;;4.40;;
70199;SDS011;57587;55.688;37.600;2023-01-29T08:10:38;6.03;;;4.00;;
70199;SDS011;57587;55.688;37.600;2023-01-29T08:13:06;6.47;;;4.63;;
70199;SDS011;57587;55.688;37.600;2023-01-29T08:15:33;9.15;;;4.35;;
70199;SDS011;57587;55.688;37.600;2023-01-29T08:18:04;8.13;;;4.80;;
70199;SDS011;57587;55.688;37.600;2023-01-29T08:20:35;7.80;;;4.70;;
70199;SDS011;57587;55.688;37.600;2023-01-29T08:23:03;6.38;;;4.30;;
70199;SDS011;57587;55.688;37.600;2023-01-29T08:25:34;12.95;;;7.72;;
70199;SDS011;57587;55.688;37.600;2023-01-29T08:28:02;8.77;;;4.45;;
70199;SDS011;57587;55.688;37.600;2023-01-29T08:30:31;8.98;;;4.32;;
70199;SDS011;57587;55.688;37.600;2023-01-29T08:32:59;7.83;;;4.87;;
70199;SDS011;57587;55.688;37.600;2023-01-29T08:35:28;7.07;;;4.15;;
70199;SDS011;57587;55.688;37.600;2023-01-29T08:37:56;7.18;;;4.28;;
70199;SDS011;57587;55.688;37.600;2023-01-29T08:40:25;7.45;;;4.45;;
70199;SDS011;57587;55.688;37.600;2023-01-29T08:42:58;7.78;;;4.57;;
70199;SDS011;57587;55.688;37.600;2023-01-29T08:45:34;7.97;;;4.80;;
70199;SDS011;57587;55.688;37.600;2023-01-29T08:48:03;7.40;;;3.85;;
70199;SDS011;57587;55.688;37.600;2023-01-29T08:50:30;7.47;;;4.28;;
70199;SDS011;57587;55.688;37.600;2023-01-29T08:52:58;8.15;;;4.10;;
70199;SDS011;57587;55.688;37.600;2023-01-29T08:55:27;9.05;;;3.97;;
70199;SDS011;57587;55.688;37.600;2023-01-29T08:57:54;8.13;;;4.37;;
70199;SDS011;57587;55.688;37.600;2023-01-29T09:00:24;5.45;;;3.85;;
70199;SDS011;57587;55.688;37.600;2023-01-29T09:02:52;6.47;;;3.85;;
70199;SDS011;57587;55.688;37.600;2023-01-29T09:05:19;6.15;;;4.10;;
70199;SDS011;57587;55.688;37.600;2023-01-29T09:07:46;12.90;;;4.00;;
70199;SDS011;57587;55.688;37.600;2023-01-29T09:10:13;7.40;;;4.30;;
70199;SDS011;57587;55.688;37.600;2023-01-29T09:12:41;5.72;;;3.65;;
70199;SDS011;57587;55.688;37.600;2023-01-29T09:15:09;7.22;;;4.00;;
70199;SDS011;57587;55.688;37.600;2023-01-29T09:17:36;7.07;;;4.57;;
70199;SDS011;57587;55.688;37.600;2023-01-29T09:20:03;8.35;;;5.25;;
70199;SDS011;57587;55.688;37.600;2023-01-29T09:22:31;10.03;;;4.30;;
70199;SDS011;57587;55.688;37.600;2023-01-29T09:24:59;8.27;;;3.97;;
70199;SDS011;57587;55.688;37.600;2023-01-29T09:27:26;8.30;;;3.78;;
70199;SDS011;57587;55.688;37.600;2023-01-29T09:29:53;6.93;;;4.15;;
70199;SDS011;57587;55.688;37.600;2023-01-29T09:32:20;10.48;;;4.10;;
70199;SDS011;57587;55.688;37.600;2023-01-29T09:35:08;6.33;;;3.80;;
70199;SDS011;57587;55.688;37.600;2023-01-29T09:37:35;5.47;;;3.38;;
70199;SDS011;57587;55.688;37.600;2023-01-29T09:40:02;5.22;;;3.70;;
70199;SDS011;57587;55.688;37.600;2023-01-29T09:42:36;6.30;;;3.67;;
70199;SDS011;57587;55.688;37.600;2023-01-29T09:45:14;7.43;;;3.70;;
70199;SDS011;57587;55.688;37.600;2023-01-29T09:47:46;7.57;;;4.37;;
70199;SDS011;57587;55.688;37.600;2023-01-29T09:50:18;7.88;;;4.30;;
70199;SDS011;57587;55.688;37.600;2023-01-29T09:52:56;5.97;;;3.50;;
70199;SDS011;57587;55.688;37.600;2023-01-29T09:55:32;5.88;;;4.10;;
70199;SDS011;57587;55.688;37.600;2023-01-29T09:58:11;6.97;;;3.30;;
70199;SDS011;57587;55.688;37.600;2023-01-29T10:06:36;6.57;;;4.03;;
70199;SDS011;57587;55.688;37.600;2023-01-29T10:09:36;5.47;;;3.13;;
70199;SDS011;57587;55.688;37.600;2023-01-29T10:24:03;7.47;;;3.78;;
70199;SDS011;57587;55.688;37.600;2023-01-29T10:26:36;6.30;;;3.67;;
70199;SDS011;57587;55.688;37.600;2023-01-29T10:29:06;5.90;;;3.47;;
70199;SDS011;57587;55.688;37.600;2023-01-29T10:31:38;6.05;;;3.65;;
70199;SDS011;57587;55.688;37.600;2023-01-29T10:34:09;6.65;;;3.92;;
70199;SDS011;57587;55.688;37.600;2023-01-29T10:36:44;7.78;;;4.38;;
70199;SDS011;57587;55.688;37.600;2023-01-29T10:39:16;5.47;;;3.80;;
70199;SDS011;57587;55.688;37.600;2023-01-29T10:44:36;6.57;;;3.65;;
70199;SDS011;57587;55.688;37.600;2023-01-29T10:58:50;5.97;;;3.65;;
70199;SDS011;57587;55.688;37.600;2023-01-29T11:01:24;7.60;;;4.18;;
70199;SDS011;57587;55.688;37.600;2023-01-29T11:03:56;7.65;;;3.90;;
70199;SDS011;57587;55.688;37.600;2023-01-29T11:06:30;6.53;;;4.47;;
70199;SDS011;57587;55.688;37.600;2023-01-29T11:09:07;7.10;;;4.47;;
70199;SDS011;57587;55.688;37.600;2023-01-29T11:14:41;6.65;;;3.60;;
70199;SDS011;57587;55.688;37.600;2023-01-29T11:17:33;7.53;;;4.00;;
70199;SDS011;57587;55.688;37.600;2023-01-29T11:27:58;6.25;;;3.88;;
70199;SDS011;57587;55.688;37.600;2023-01-29T11:31:25;7.68;;;4.20;;
70199;SDS011;57587;55.688;37.600;2023-01-29T11:34:20;7.20;;;4.30;;
70199;SDS011;57587;55.688;37.600;2023-01-29T11:37:10;7.05;;;4.82;;
70199;SDS011;57587;55.688;37.600;2023-01-29T11:43:42;7.82;;;4.13;;
70199;SDS011;57587;55.688;37.600;2023-01-29T11:46:17;11.38;;;5.63;;
70199;SDS011;57587;55.688;37.600;2023-01-29T11:48:45;8.13;;;5.20;;
70199;SDS011;57587;55.688;37.600;2023-01-29T11:52:10;8.05;;;4.57;;
70199;SDS011;57587;55.688;37.600;2023-01-29T11:54:52;10.10;;;4.95;;
70199;SDS011;57587;55.688;37.600;2023-01-29T11:57:44;6.85;;;4.35;;
70199;SDS011;57587;55.688;37.600;2023-01-29T12:00:51;7.53;;;4.75;;
70199;SDS011;57587;55.688;37.600;2023-01-29T12:03:38;8.03;;;4.90;;
70199;SDS011;57587;55.688;37.600;2023-01-29T12:07:26;9.82;;;4.78;;
70199;SDS011;57587;55.688;37.600;2023-01-29T12:14:03;8.82;;;4.80;;
70199;SDS011;57587;55.688;37.600;2023-01-29T12:17:37;7.95;;;4.20;;
70199;SDS011;57587;55.688;37.600;2023-01-29T12:20:49;7.80;;;4.70;;
70199;SDS011;57587;55.688;37.600;2023-01-29T12:26:56;8.55;;;5.30;;
70199;SDS011;57587;55.688;37.600;2023-01-29T12:37:10;9.10;;;5.60;;
70199;SDS011;57587;55.688;37.600;2023-01-29T12:39:46;8.25;;;5.03;;
70199;SDS011;57587;55.688;37.600;2023-01-29T12:42:29;9.93;;;5.22;;
70199;SDS011;57587;55.688;37.600;2023-01-29T12:45:55;9.32;;;5.38;;
70199;SDS011;57587;55.688;37.600;2023-01-29T12:48:38;9.05;;;5.43;;
70199;SDS011;57587;55.688;37.600;2023-01-29T12:57:24;9.43;;;5.22;;
70199;SDS011;57587;55.688;37.600;2023-01-29T13:00:49;9.57;;;4.88;;
70199;SDS011;57587;55.688;37.600;2023-01-29T13:03:48;8.57;;;4.90;;
70199;SDS011;57587;55.688;37.600;2023-01-29T13:06:40;8.13;;;5.20;;
70199;SDS011;57587;55.688;37.600;2023-01-29T13:09:19;9.45;;;5.20;;
70199;SDS011;57587;55.688;37.600;2023-01-29T13:11:55;8.85;;;4.80;;
70199;SDS011;57587;55.688;37.600;2023-01-29T13:14:27;9.10;;;5.07;;
70199;SDS011;57587;55.688;37.600;2023-01-29T13:17:12;9.48;;;5.40;;
70199;SDS011;57587;55.688;37.600;2023-01-29T13:19:48;9.50;;;5.57;;
70199;SDS011;57587;55.688;37.600;2023-01-29T13:22:25;10.05;;;5.45;;
70199;SDS011;57587;55.688;37.600;2023-01-29T13:24:56;8.88;;;4.60;;
70199;SDS011;57587;55.688;37.600;2023-01-29T13:27:36;8.55;;;4.80;;
70199;SDS011;57587;55.688;37.600;2023-01-29T13:30:05;8.98;;;5.20;;
70199;SDS011;57587;55.688;37.600;2023-01-29T13:32:35;8.50;;;4.73;;
70199;SDS011;57587;55.688;37.600;2023-01-29T13:35:03;9.40;;;5.30;;
70199;SDS011;57587;55.688;37.600;2023-01-29T13:37:40;9.35;;;5.18;;
70199;SDS011;57587;55.688;37.600;2023-01-29T13:42:56;10.65;;;5.70;;
70199;SDS011;57587;55.688;37.600;2023-01-29T13:48:10;9.02;;;5.20;;
70199;SDS011;57587;55.688;37.600;2023-01-29T13:50:50;10.60;;;5.47;;
70199;SDS011;57587;55.688;37.600;2023-01-29T13:53:22;8.68;;;5.35;;
70199;SDS011;57587;55.688;37.600;2023-01-29T13:55:55;9.32;;;5.53;;
70199;SDS011;57587;55.688;37.600;2023-01-29T13:58:56;9.13;;;5.37;;
70199;SDS011;57587;55.688;37.600;2023-01-29T14:06:45;9.18;;;5.25;;
70199;SDS011;57587;55.688;37.600;2023-01-29T14:09:31;10.73;;;5.57;;
70199;SDS011;57587;55.688;37.600;2023-01-29T14:12:29;10.57;;;6.40;;
70199;SDS011;57587;55.688;37.600;2023-01-29T14:17:22;10.68;;;5.43;;
70199;SDS011;57587;55.688;37.600;2023-01-29T14:19:57;10.02;;;5.50;;
70199;SDS011;57587;55.688;37.600;2023-01-29T14:22:29;12.10;;;5.85;;
70199;SDS011;57587;55.688;37.600;2023-01-29T14:25:01;11.87;;;6.27;;
70199;SDS011;57587;55.688;37.600;2023-01-29T14:27:30;12.40;;;5.80;;
70199;SDS011;57587;55.688;37.600;2023-01-29T14:30:06;11.85;;;5.70;;
70199;SDS011;57587;55.688;37.600;2023-01-29T14:32:38;8.63;;;5.30;;
70199;SDS011;57587;55.688;37.600;2023-01-29T14:35:15;9.60;;;5.28;;
70199;SDS011;57587;55.688;37.600;2023-01-29T14:37:52;12.07;;;6.07;;
70199;SDS011;57587;55.688;37.600;2023-01-29T14:40:23;12.98;;;6.35;;
70199;SDS011;57587;55.688;37.600;2023-01-29T14:45:37;9.80;;;4.80;;
70199;SDS011;57587;55.688;37.600;2023-01-29T14:56:08;13.68;;;6.45;;
70199;SDS011;57587;55.688;37.600;2023-01-29T14:58:52;12.93;;;5.70;;
70199;SDS011;57587;55.688;37.600;2023-01-29T15:01:38;12.95;;;5.82;;
70199;SDS011;57587;55.688;37.600;2023-01-29T15:06:43;13.00;;;6.30;;
70199;SDS011;57587;55.688;37.600;2023-01-29T15:09:14;11.23;;;5.75;;
70199;SDS011;57587;55.688;37.600;2023-01-29T15:11:51;12.10;;;6.00;;
70199;SDS011;57587;55.688;37.600;2023-01-29T15:18:27;9.63;;;5.40;;
70199;SDS011;57587;55.688;37.600;2023-01-29T15:25:35;15.20;;;6.57;;
70199;SDS011;57587;55.688;37.600;2023-01-29T15:28:19;16.98;;;5.72;;
70199;SDS011;57587;55.688;37.600;2023-01-29T15:30:50;11.68;;;5.63;;
70199;SDS011;57587;55.688;37.600;2023-01-29T15:33:20;14.00;;;6.15;;
70199;SDS011;57587;55.688;37.600;2023-01-29T15:35:48;14.57;;;6.70;;
70199;SDS011;57587;55.688;37.600;2023-01-29T15:38:32;13.32;;;6.05;;
70199;SDS011;57587;55.688;37.600;2023-01-29T15:41:00;11.57;;;5.90;;
70199;SDS011;57587;55.688;37.600;2023-01-29T15:43:36;12.88;;;6.32;;
70199;SDS011;57587;55.688;37.600;2023-01-29T15:46:11;12.70;;;6.57;;
70199;SDS011;57587;55.688;37.600;2023-01-29T15:48:52;13.80;;;7.53;;
70199;SDS011;57587;55.688;37.600;2023-01-29T15:51:25;19.20;;;7.28;;
70199;SDS011;57587;55.688;37.600;2023-01-29T15:53:54;13.80;;;7.32;;
70199;SDS011;57587;55.688;37.600;2023-01-29T15:56:24;11.88;;;6.40;;
70199;SDS011;57587;55.688;37.600;2023-01-29T15:58:56;15.70;;;7.15;;
70199;SDS011;57587;55.688;37.600;2023-01-29T16:01:27;15.43;;;7.77;;
70199;SDS011;57587;55.688;37.600;2023-01-29T16:04:03;15.23;;;6.93;;
70199;SDS011;57587;55.688;37.600;2023-01-29T16:06:38;13.48;;;6.28;;
70199;SDS011;57587;55.688;37.600;2023-01-29T16:09:20;14.52;;;6.55;;
70199;SDS011;57587;55.688;37.600;2023-01-29T16:12:04;14.23;;;6.53;;
70199;SDS011;57587;55.688;37.600;2023-01-29T16:14:35;12.30;;;6.60;;
70199;SDS011;57587;55.688;37.600;2023-01-29T16:23:34;14.75;;;6.82;;
70199;SDS011;57587;55.688;37.600;2023-01-29T16:26:30;13.13;;;7.03;;
70199;SDS011;57587;55.688;37.600;2023-01-29T16:29:03;12.87;;;6.17;;
70199;SDS011;57587;55.688;37.600;2023-01-29T16:31:32;14.75;;;7.05;;
70199;SDS011;57587;55.688;37.600;2023-01-29T16:37:14;14.55;;;7.00;;
70199;SDS011;57587;55.688;37.600;2023-01-29T16:39:47;16.42;;;7.68;;
70199;SDS011;57587;55.688;37.600;2023-01-29T16:47:24;14.55;;;6.53;;
70199;SDS011;57587;55.688;37.600;2023-01-29T16:49:58;14.18;;;6.32;;
70199;SDS011;57587;55.688;37.600;2023-01-29T16:53:01;13.65;;;6.88;;
70199;SDS011;57587;55.688;37.600;2023-01-29T16:55:42;14.53;;;7.07;;
70199;SDS011;57587;55.688;37.600;2023-01-29T17:10:51;12.93;;;6.50;;
70199;SDS011;57587;55.688;37.600;2023-01-29T17:13:29;12.30;;;7.00;;
70199;SDS011;57587;55.688;37.600;2023-01-29T17:16:01;13.30;;;6.80;;
70199;SDS011;57587;55.688;37.600;2023-01-29T17:32:27;14.13;;;6.07;;
70199;SDS011;57587;55.688;37.600;2023-01-29T17:48:35;13.90;;;6.70;;
70199;SDS011;57587;55.688;37.600;2023-01-29T18:19:52;14.60;;;6.68;;
70199;SDS011;57587;55.688;37.600;2023-01-29T18:29:05;13.18;;;6.85;;
70199;SDS011;57587;55.688;37.600;2023-01-29T18:31:39;17.13;;;8.38;;
70199;SDS011;57587;55.688;37.600;2023-01-29T18:34:07;16.60;;;7.57;;
70199;SDS011;57587;55.688;37.600;2023-01-29T18:36:34;13.50;;;5.88;;
70199;SDS011;57587;55.688;37.600;2023-01-29T18:39:01;14.45;;;6.22;;
70199;SDS011;57587;55.688;37.600;2023-01-29T18:41:29;14.40;;;6.25;;
70199;SDS011;57587;55.688;37.600;2023-01-29T18:43:56;13.20;;;6.45;;
70199;SDS011;57587;55.688;37.600;2023-01-29T18:46:23;12.33;;;5.83;;
70199;SDS011;57587;55.688;37.600;2023-01-29T18:48:50;14.57;;;6.63;;
70199;SDS011;57587;55.688;37.600;2023-01-29T18:51:18;13.88;;;7.03;;
70199;SDS011;57587;55.688;37.600;2023-01-29T18:53:48;12.27;;;6.57;;
70199;SDS011;57587;55.688;37.600;2023-01-29T18:56:17;12.07;;;5.85;;
70199;SDS011;57587;55.688;37.600;2023-01-29T18:58:44;13.90;;;6.73;;
70199;SDS011;57587;55.688;37.600;2023-01-29T19:01:21;13.13;;;6.72;;
70199;SDS011;57587;55.688;37.600;2023-01-29T19:03:49;13.75;;;6.55;;
70199;SDS011;57587;55.688;37.600;2023-01-29T19:06:16;12.55;;;6.40;;
70199;SDS011;57587;55.688;37.600;2023-01-29T19:08:43;15.07;;;7.13;;
70199;SDS011;57587;55.688;37.600;2023-01-29T19:11:13;13.17;;;7.47;;
70199;SDS011;57587;55.688;37.600;2023-01-29T19:13:41;10.95;;;6.65;;
70199;SDS011;57587;55.688;37.600;2023-01-29T19:16:08;12.48;;;6.50;;
70199;SDS011;57587;55.688;37.600;2023-01-29T19:18:37;12.02;;;6.97;;
70199;SDS011;57587;55.688;37.600;2023-01-29T19:21:06;11.52;;;6.40;;
70199;SDS011;57587;55.688;37.600;2023-01-29T19:23:36;12.83;;;6.67;;
70199;SDS011;57587;55.688;37.600;2023-01-29T19:26:04;12.63;;;7.55;;
70199;SDS011;57587;55.688;37.600;2023-01-29T19:28:31;15.02;;;7.88;;
70199;SDS011;57587;55.688;37.600;2023-01-29T19:30:59;13.38;;;7.18;;
70199;SDS011;57587;55.688;37.600;2023-01-29T19:33:27;15.80;;;7.55;;